Time;durP1;ratioP1;P1;durP2;ratioP2;P2;SDS_P1;SDS_P2;PMS_P1;PMS_P2;Temp;Humidity;BMP_temperature;BMP_pressure;BME280_temperature;BME280_humidity;BME280_pressure;Samples;Min_cycle;Max_cycle;Signal;HPM_P1;HPM_P2
2021/05/05 00:01:57;;;;;;;14.30;8.15;;;;;;;11.56;68.90;99238.29;1660444;82;25838;-75
2021/05/05 00:04:25;;;;;;;11.00;8.50;;;;;;;11.49;68.99;99230.33;1729498;81;25791;-76
2021/05/05 00:06:55;;;;;;;9.23;7.35;;;;;;;11.42;68.97;99227.41;1700123;82;26236;-75
2021/05/05 00:09:23;;;;;;;12.23;7.72;;;;;;;11.41;69.00;99238.69;1708508;82;27535;-75
2021/05/05 00:11:51;;;;;;;12.68;7.90;;;;;;;11.40;69.17;99226.82;1680497;82;25747;-76
2021/05/05 00:14:20;;;;;;;12.60;7.60;;;;;;;11.39;69.03;99222.01;1720578;82;25859;-75
2021/05/05 00:16:48;;;;;;;7.95;6.47;;;;;;;11.37;69.15;99227.29;1699533;82;26493;-75
2021/05/05 00:19:15;;;;;;;11.57;8.08;;;;;;;11.35;69.04;99230.72;1729687;82;25984;-75
2021/05/05 00:21:43;;;;;;;12.35;7.17;;;;;;;11.32;69.22;99225.28;1702940;81;27997;-75
2021/05/05 00:24:12;;;;;;;9.10;6.85;;;;;;;11.31;69.20;99224.97;1694474;82;25739;-76
2021/05/05 00:26:39;;;;;;;9.90;6.85;;;;;;;11.29;69.22;99221.70;1692889;81;26368;-74
2021/05/05 00:29:08;;;;;;;9.00;5.53;;;;;;;11.24;69.28;99220.23;1728914;81;25849;-75
2021/05/05 00:31:36;;;;;;;9.33;6.50;;;;;;;11.17;69.35;99218.66;1649489;83;25915;-75
2021/05/05 00:34:04;;;;;;;8.03;4.80;;;;;;;11.07;69.51;99229.91;1672973;84;28439;-75
2021/05/05 00:36:32;;;;;;;7.12;4.92;;;;;;;11.00;69.75;99225.13;1683556;83;25851;-75
2021/05/05 00:38:59;;;;;;;5.62;4.58;;;;;;;10.96;70.02;99221.27;1702059;82;26393;-75
2021/05/05 00:41:27;;;;;;;6.17;4.08;;;;;;;10.94;69.98;99219.84;1673636;81;25727;-75
2021/05/05 00:43:54;;;;;;;6.65;4.60;;;;;;;10.94;70.30;99218.50;1701420;83;26066;-75
2021/05/05 00:46:22;;;;;;;7.50;4.25;;;;;;;10.92;70.31;99218.73;1705246;81;28294;-76
2021/05/05 00:48:49;;;;;;;6.15;3.75;;;;;;;10.94;70.87;99222.52;1719612;82;26184;-76
2021/05/05 00:51:16;;;;;;;5.45;4.35;;;;;;;10.93;70.74;99219.56;1686319;81;25836;-76
2021/05/05 00:53:44;;;;;;;6.40;3.85;;;;;;;10.95;70.74;99230.87;1702871;83;25782;-76
2021/05/05 00:56:11;;;;;;;5.97;4.60;;;;;;;10.97;70.90;99227.45;1688025;82;25850;-75
2021/05/05 00:58:38;;;;;;;6.08;3.62;;;;;;;11.00;70.76;99235.85;1702998;82;28367;-76
2021/05/05 01:01:06;;;;;;;6.28;4.67;;;;;;;11.01;70.66;99226.78;1684496;81;26622;-76
2021/05/05 01:03:33;;;;;;;5.72;4.20;;;;;;;11.01;70.62;99224.11;1670932;84;25801;-75
2021/05/05 01:06:03;;;;;;;6.33;3.87;;;;;;;11.03;70.69;99223.87;1665612;83;25805;-75
2021/05/05 01:08:32;;;;;;;6.42;4.12;;;;;;;11.04;70.64;99230.86;1712138;83;25862;-75
2021/05/05 01:11:02;;;;;;;4.37;3.52;;;;;;;11.05;70.59;99228.49;1667275;83;27566;-75
2021/05/05 01:13:30;;;;;;;7.33;3.90;;;;;;;11.07;70.61;99223.73;1680989;83;25929;-75
2021/05/05 01:15:58;;;;;;;4.67;3.22;;;;;;;11.07;70.54;99229.91;1680492;83;26471;-75
2021/05/05 01:18:28;;;;;;;5.62;3.25;;;;;;;11.07;70.47;99227.23;1705099;83;26433;-76
2021/05/05 01:20:58;;;;;;;5.25;4.05;;;;;;;11.08;70.46;99228.02;1674380;82;26475;-76
2021/05/05 01:23:26;;;;;;;7.58;4.22;;;;;;;11.10;70.45;99229.99;1674381;84;28451;-76
2021/05/05 01:25:55;;;;;;;4.85;3.60;;;;;;;11.09;70.40;99225.66;1689902;83;25896;-76
2021/05/05 01:28:23;;;;;;;5.80;4.08;;;;;;;11.08;70.36;99225.34;1674373;83;25849;-76
2021/05/05 01:30:51;;;;;;;5.85;4.12;;;;;;;11.08;70.40;99218.64;1683762;83;25774;-75
2021/05/05 01:33:20;;;;;;;5.80;4.15;;;;;;;11.07;70.29;99225.89;1704094;83;25948;-76
2021/05/05 01:35:50;;;;;;;5.70;3.67;;;;;;;11.04;70.27;99224.98;1707079;83;27769;-75
2021/05/05 01:38:18;;;;;;;6.45;4.40;;;;;;;11.02;70.40;99219.03;1656320;83;25823;-75
2021/05/05 01:40:47;;;;;;;4.78;4.08;;;;;;;10.97;70.48;99210.83;1682131;83;26525;-75
2021/05/05 01:43:16;;;;;;;6.15;5.03;;;;;;;10.94;70.67;99214.48;1682886;83;26608;-75
2021/05/05 01:45:44;;;;;;;6.12;4.28;;;;;;;10.94;70.82;99215.83;1706319;83;26110;-75
2021/05/05 01:48:12;;;;;;;6.90;4.67;;;;;;;10.90;70.91;99201.24;1676617;83;27724;-75
2021/05/05 01:50:39;;;;;;;9.68;4.62;;;;;;;10.88;70.96;99204.66;1678710;83;26261;-76
2021/05/05 01:53:07;;;;;;;6.35;4.08;;;;;;;10.84;71.10;99204.30;1678197;83;25817;-75
2021/05/05 01:55:36;;;;;;;7.17;4.80;;;;;;;10.82;71.20;99205.02;1679612;83;25912;-75
2021/05/05 01:58:05;;;;;;;5.65;4.85;;;;;;;10.76;71.34;99201.37;1668587;83;25848;-75
2021/05/05 02:00:35;;;;;;;5.30;4.28;;;;;;;10.74;71.54;99195.94;1675136;84;28209;-75
2021/05/05 02:03:07;;;;;;;5.55;4.60;;;;;;;10.72;71.74;99194.83;1709943;82;26370;-76
2021/05/05 02:05:37;;;;;;;9.73;5.13;;;;;;;10.72;71.78;99199.36;1705453;83;25762;-76
2021/05/05 02:08:14;;;;;;;9.00;5.28;;;;;;;10.77;71.98;99192.31;1828018;77;25713;-76
2021/05/05 02:10:45;;;;;;;9.30;4.75;;;;;;;10.74;72.02;99195.94;1771244;78;25782;-76
2021/05/05 02:13:12;;;;;;;6.75;4.65;;;;;;;10.74;71.99;99193.26;1789663;79;28393;-76
2021/05/05 02:15:40;;;;;;;5.85;5.25;;;;;;;10.72;71.93;99197.51;1755720;80;25902;-76
2021/05/05 02:18:10;;;;;;;11.53;4.97;;;;;;;10.74;71.88;99199.95;1786891;79;25365;-75
2021/05/05 02:20:38;;;;;;;7.25;4.97;;;;;;;10.74;71.86;99201.30;1779833;79;25624;-75
2021/05/05 02:23:06;;;;;;;8.35;5.08;;;;;;;10.71;71.79;99197.73;1790269;79;25689;-75
2021/05/05 02:25:34;;;;;;;7.37;5.03;;;;;;;10.70;71.79;99197.42;1750457;80;27412;-75
2021/05/05 02:28:04;;;;;;;9.48;5.25;;;;;;;10.67;71.77;99189.85;1779356;79;25899;-76
2021/05/05 02:30:33;;;;;;;7.05;4.65;;;;;;;10.66;71.70;99194.38;1788329;78;25782;-75
2021/05/05 02:33:02;;;;;;;6.70;3.85;;;;;;;10.64;71.62;99199.14;1794285;78;26188;-75
2021/05/05 02:35:30;;;;;;;7.60;4.40;;;;;;;10.60;71.79;99194.45;1770455;78;25744;-76
2021/05/05 02:37:59;;;;;;;6.17;4.17;;;;;;;10.58;71.77;99197.35;1750287;78;28310;-75
2021/05/05 02:40:27;;;;;;;5.90;4.40;;;;;;;10.56;72.02;99195.92;1797897;78;25869;-75
2021/05/05 02:42:57;;;;;;;5.10;4.65;;;;;;;10.55;71.78;99189.75;1729093;81;25834;-75
2021/05/05 02:45:25;;;;;;;5.40;4.65;;;;;;;10.55;71.73;99184.91;1702035;81;26278;-75
2021/05/05 02:47:52;;;;;;;6.00;4.10;;;;;;;10.55;71.62;99182.23;1737365;81;25768;-75
2021/05/05 02:50:20;;;;;;;6.80;5.03;;;;;;;10.54;71.61;99184.63;1704468;82;28400;-76
2021/05/05 02:52:47;;;;;;;6.97;4.70;;;;;;;10.52;71.51;99175.45;1725404;82;26215;-75
2021/05/05 02:55:15;;;;;;;6.65;4.95;;;;;;;10.52;71.47;99178.13;1688620;82;25846;-75
2021/05/05 02:57:44;;;;;;;5.33;4.20;;;;;;;10.51;71.40;99181.03;1729586;81;26351;-75
2021/05/05 03:00:14;;;;;;;6.62;4.78;;;;;;;10.48;71.29;99180.95;1722532;81;25793;-75
2021/05/05 03:02:41;;;;;;;7.62;4.42;;;;;;;10.47;71.31;99179.84;1726405;81;27500;-75
2021/05/05 03:05:10;;;;;;;9.08;6.95;;;;;;;10.46;71.35;99175.52;1746550;81;25884;-75
2021/05/05 03:07:37;;;;;;;5.83;5.15;;;;;;;10.47;71.33;99179.84;1670481;81;26428;-75
2021/05/05 03:10:08;;;;;;;6.08;4.97;;;;;;;10.46;71.25;99181.69;1721550;81;25775;-75
2021/05/05 03:12:35;;;;;;;8.23;4.72;;;;;;;10.43;71.22;99185.34;1708153;82;25704;-75
2021/05/05 03:15:06;;;;;;;6.92;5.45;;;;;;;10.41;71.22;99188.75;1703366;82;27696;-76
2021/05/05 03:17:34;;;;;;;9.50;5.33;;;;;;;10.37;71.19;99193.70;1713255;82;26360;-75
2021/05/05 03:20:01;;;;;;;11.05;5.25;;;;;;;10.34;71.14;99191.48;1733816;80;25840;-75
2021/05/05 03:22:28;;;;;;;6.42;5.40;;;;;;;10.32;71.28;99188.22;1748273;81;25914;-75
2021/05/05 03:24:56;;;;;;;6.55;4.62;;;;;;;10.33;71.30;99200.54;1684112;82;26114;-75
2021/05/05 03:27:23;;;;;;;7.50;5.47;;;;;;;10.31;71.32;99200.48;1726744;81;28373;-75
2021/05/05 03:29:50;;;;;;;6.50;5.00;;;;;;;10.32;71.46;99202.11;1720005;81;25927;-75
2021/05/05 03:32:18;;;;;;;8.88;4.90;;;;;;;10.32;71.53;99201.59;1753035;81;25733;-76
2021/05/05 03:34:45;;;;;;;6.08;4.70;;;;;;;10.35;71.69;99197.67;1693348;81;25791;-76
2021/05/05 03:37:12;;;;;;;6.30;4.30;;;;;;;10.33;71.76;99200.54;1727569;81;26134;-76
2021/05/05 03:39:40;;;;;;;5.55;4.45;;;;;;;10.36;71.99;99204.13;1721543;81;27311;-76
2021/05/05 03:42:07;;;;;;;6.67;4.60;;;;;;;10.39;72.00;99202.88;1721798;81;25965;-75
2021/05/05 03:44:35;;;;;;;5.42;4.58;;;;;;;10.43;72.15;99197.38;1700206;81;25523;-75
2021/05/05 03:47:02;;;;;;;5.53;4.55;;;;;;;10.54;72.21;99198.80;1732625;81;25838;-75
2021/05/05 03:49:30;;;;;;;6.58;4.80;;;;;;;10.69;72.20;99205.17;1723000;82;25399;-76
2021/05/05 03:51:57;;;;;;;5.08;4.30;;;;;;;10.82;72.14;99202.34;1721233;82;28537;-74
2021/05/05 03:54:24;;;;;;;6.37;4.42;;;;;;;10.88;71.82;99202.81;1682355;81;25708;-76
2021/05/05 03:56:52;;;;;;;6.00;4.33;;;;;;;10.96;71.74;99203.02;1722661;81;25341;-76
2021/05/05 03:59:20;;;;;;;5.08;4.58;;;;;;;11.01;71.45;99208.55;1728738;81;25780;-76
2021/05/05 04:01:47;;;;;;;7.90;4.75;;;;;;;10.97;71.18;99216.19;1773688;79;26088;-76
2021/05/05 04:04:15;;;;;;;7.70;4.83;;;;;;;11.04;71.30;99219.62;1725373;79;27318;-76
2021/05/05 04:06:42;;;;;;;6.62;4.75;;;;;;;11.05;71.13;99220.45;1775259;78;25948;-75
2021/05/05 04:09:11;;;;;;;7.00;4.58;;;;;;;11.05;71.14;99224.47;1775774;78;25981;-75
2021/05/05 04:11:39;;;;;;;5.87;4.58;;;;;;;11.04;71.19;99227.66;1742958;81;25891;-75
2021/05/05 04:14:08;;;;;;;5.70;4.30;;;;;;;11.07;71.34;99223.73;1693398;81;25786;-76
2021/05/05 04:16:35;;;;;;;6.75;4.78;;;;;;;11.12;71.27;99220.66;1696003;82;27546;-76
2021/05/05 04:19:03;;;;;;;7.62;4.10;;;;;;;11.15;71.14;99218.89;1709090;81;25865;-76
2021/05/05 04:21:31;;;;;;;6.25;4.45;;;;;;;11.14;71.10;99220.46;1726306;81;25848;-75
2021/05/05 04:23:59;;;;;;;5.55;4.45;;;;;;;11.15;71.06;99224.77;1690001;81;25911;-76
2021/05/05 04:26:27;;;;;;;5.15;4.65;;;;;;;11.18;71.08;99227.01;1700682;81;25871;-76
2021/05/05 04:28:54;;;;;;;7.53;4.05;;;;;;;11.21;71.02;99225.20;1723924;81;27105;-75
2021/05/05 04:31:23;;;;;;;5.83;4.53;;;;;;;11.25;70.98;99229.89;1748038;81;26395;-75
2021/05/05 04:33:50;;;;;;;5.65;4.40;;;;;;;11.28;71.08;99227.29;1707282;81;26346;-76
2021/05/05 04:36:18;;;;;;;5.22;4.72;;;;;;;11.35;71.15;99229.38;1726947;81;25884;-76
2021/05/05 04:38:45;;;;;;;5.85;4.08;;;;;;;11.43;71.41;99229.89;1743078;81;25916;-75
2021/05/05 04:41:13;;;;;;;5.83;3.83;;;;;;;11.50;71.34;99233.29;1745587;81;27654;-76
2021/05/05 04:43:40;;;;;;;6.40;4.08;;;;;;;11.53;71.13;99230.17;1750365;81;25848;-76
2021/05/05 04:46:08;;;;;;;4.67;3.90;;;;;;;11.56;71.05;99228.91;1750386;81;25932;-75
2021/05/05 04:48:35;;;;;;;4.37;3.83;;;;;;;11.59;70.96;99223.06;1721215;81;25966;-75
2021/05/05 04:51:02;;;;;;;5.67;3.95;;;;;;;11.62;70.85;99218.09;1736792;82;26052;-75
2021/05/05 04:53:30;;;;;;;5.10;3.55;;;;;;;11.64;70.71;99215.17;1696831;81;27641;-76
2021/05/05 04:55:57;;;;;;;4.85;3.65;;;;;;;11.65;70.46;99208.23;1717692;82;26194;-76
2021/05/05 04:58:24;;;;;;;7.67;3.50;;;;;;;11.65;70.32;99212.80;1730450;81;25756;-76
2021/05/05 05:00:52;;;;;;;4.03;3.62;;;;;;;11.61;69.84;99207.59;1748241;81;25722;-75
2021/05/05 05:03:19;;;;;;;3.90;3.37;;;;;;;11.59;69.78;99217.70;1728602;81;26415;-76
2021/05/05 05:05:47;;;;;;;4.37;3.35;;;;;;;11.62;69.99;99207.87;1707287;81;28048;-76
2021/05/05 05:08:14;;;;;;;4.67;3.65;;;;;;;11.71;70.06;99212.44;1741974;81;25928;-76
2021/05/05 05:10:42;;;;;;;6.05;4.03;;;;;;;11.84;70.00;99199.66;1728944;81;25801;-76
2021/05/05 05:13:09;;;;;;;7.80;3.85;;;;;;;11.98;70.04;99205.12;1666210;81;25843;-76
2021/05/05 05:15:36;;;;;;;6.40;3.37;;;;;;;12.04;69.60;99198.83;1739942;79;26207;-76
2021/05/05 05:18:04;;;;;;;6.12;3.58;;;;;;;12.07;69.27;99206.43;1762073;79;27006;-76
2021/05/05 05:20:32;;;;;;;4.17;3.12;;;;;;;12.05;68.56;99211.73;1794580;78;26456;-76
2021/05/05 05:22:59;;;;;;;5.08;3.15;;;;;;;12.01;68.34;99212.72;1760167;79;26467;-75
2021/05/05 05:25:27;;;;;;;5.15;3.25;;;;;;;12.04;68.30;99216.27;1763102;79;26413;-76
2021/05/05 05:27:55;;;;;;;3.85;3.15;;;;;;;12.05;68.44;99215.75;1708340;82;25916;-76
2021/05/05 05:30:23;;;;;;;3.95;3.47;;;;;;;12.02;68.30;99205.46;1739577;81;27533;-76
2021/05/05 05:32:51;;;;;;;4.33;3.42;;;;;;;12.09;68.31;99209.70;1738134;81;25774;-75
2021/05/05 05:35:18;;;;;;;4.78;3.30;;;;;;;12.21;68.47;99211.08;1762685;79;25851;-76
2021/05/05 05:37:45;;;;;;;4.53;3.00;;;;;;;12.36;68.34;99214.11;1765221;79;26516;-75
2021/05/05 05:40:14;;;;;;;3.98;3.33;;;;;;;12.49;68.47;99211.75;1764781;79;26025;-76
2021/05/05 05:42:41;;;;;;;4.30;3.52;;;;;;;12.54;67.40;99212.68;1787941;79;28480;-75
2021/05/05 05:45:09;;;;;;;4.00;3.08;;;;;;;12.56;67.19;99210.58;1760409;79;25693;-75
2021/05/05 05:47:37;;;;;;;4.53;3.10;;;;;;;12.59;67.27;99213.33;1798574;78;25768;-76
2021/05/05 05:50:05;;;;;;;4.90;3.70;;;;;;;12.65;67.39;99216.42;1770886;79;26436;-75
2021/05/05 05:52:33;;;;;;;3.67;2.87;;;;;;;12.72;67.38;99223.84;1747507;79;26080;-75
2021/05/05 05:55:00;;;;;;;4.62;3.12;;;;;;;12.80;67.31;99222.14;1758864;79;27510;-75
2021/05/05 05:57:27;;;;;;;7.72;3.27;;;;;;;12.85;67.07;99225.75;1762631;79;25912;-75
2021/05/05 05:59:55;;;;;;;3.95;3.27;;;;;;;12.87;66.78;99226.88;1766953;79;25859;-75
2021/05/05 06:02:22;;;;;;;5.37;3.33;;;;;;;12.89;66.70;99224.78;1789992;79;26516;-75
2021/05/05 06:04:50;;;;;;;6.08;2.90;;;;;;;12.90;66.72;99220.50;1763827;78;26396;-76
2021/05/05 06:07:17;;;;;;;3.37;2.65;;;;;;;12.92;66.35;99222.95;1770823;79;27519;-76
2021/05/05 06:09:46;;;;;;;5.45;3.37;;;;;;;12.91;66.08;99223.50;1764962;80;25997;-75
2021/05/05 06:12:13;;;;;;;3.47;2.80;;;;;;;12.93;66.16;99221.91;1784920;79;26249;-74
2021/05/05 06:14:41;;;;;;;3.55;2.70;;;;;;;12.97;65.69;99225.76;1729667;80;25728;-74
2021/05/05 06:17:08;;;;;;;4.83;2.60;;;;;;;12.98;65.51;99228.75;1767707;79;25932;-73
2021/05/05 06:19:35;;;;;;;3.70;3.17;;;;;;;12.95;65.31;99231.37;1761253;79;28263;-73
2021/05/05 06:22:04;;;;;;;6.90;3.50;;;;;;;12.93;65.49;99227.28;1779678;79;25617;-74
2021/05/05 06:24:31;;;;;;;3.90;2.58;;;;;;;12.91;65.47;99220.80;1777171;79;26165;-74
2021/05/05 06:26:58;;;;;;;5.75;3.72;;;;;;;12.92;65.61;99228.32;1775394;79;25964;-73
2021/05/05 06:29:25;;;;;;;4.95;2.77;;;;;;;12.89;65.84;99224.26;1743702;79;25955;-74
2021/05/05 06:31:53;;;;;;;4.33;3.20;;;;;;;12.87;65.71;99222.85;1784627;79;27515;-73
2021/05/05 06:34:20;;;;;;;6.37;3.15;;;;;;;12.85;65.91;99217.69;1747934;79;26086;-74
2021/05/05 06:36:47;;;;;;;3.80;2.98;;;;;;;12.86;66.06;99223.89;1743494;79;26582;-74
2021/05/05 06:39:15;;;;;;;5.80;3.85;;;;;;;12.87;65.92;99222.85;1779446;79;25738;-74
2021/05/05 06:41:42;;;;;;;5.15;3.17;;;;;;;12.84;65.37;99221.45;1779740;80;25709;-73
2021/05/05 06:44:10;;;;;;;4.85;3.00;;;;;;;12.84;65.30;99226.00;1762826;80;27589;-73
2021/05/05 06:46:44;;;;;;;4.60;3.05;;;;;;;12.84;65.20;99221.97;1780503;79;25854;-73
2021/05/05 06:49:12;;;;;;;4.50;2.87;;;;;;;12.83;64.83;99225.17;1766077;80;25895;-73
2021/05/05 06:51:40;;;;;;;5.83;3.75;;;;;;;12.85;65.10;99224.95;1785444;79;25741;-73
2021/05/05 06:54:08;;;;;;;10.40;3.80;;;;;;;12.86;65.01;99212.62;1757071;79;26430;-73
2021/05/05 06:56:36;;;;;;;3.37;2.60;;;;;;;12.90;64.99;99211.61;1787638;78;28521;-75
2021/05/05 06:59:04;;;;;;;7.22;2.67;;;;;;;12.95;64.61;99211.73;1770332;79;25758;-74
2021/05/05 07:01:31;;;;;;;4.55;2.60;;;;;;;13.00;64.45;99212.66;1784487;79;25785;-74
2021/05/05 07:03:58;;;;;;;6.12;2.80;;;;;;;13.07;64.27;99212.05;1756015;79;25821;-73
2021/05/05 07:06:26;;;;;;;7.03;2.50;;;;;;;13.18;64.32;99212.25;1769539;79;26519;-74
2021/05/05 07:08:54;;;;;;;3.75;2.22;;;;;;;13.27;64.19;99200.08;1782266;78;27401;-74
2021/05/05 07:11:21;;;;;;;5.95;3.35;;;;;;;13.35;63.56;99211.80;1797807;78;26583;-74
2021/05/05 07:13:48;;;;;;;3.77;2.05;;;;;;;13.40;62.50;99202.50;1753369;78;26286;-74
2021/05/05 07:16:16;;;;;;;3.98;2.00;;;;;;;13.44;62.47;99197.75;1778857;78;26567;-74
2021/05/05 07:18:43;;;;;;;3.75;2.25;;;;;;;13.52;62.38;99203.27;1755424;78;26001;-75
2021/05/05 07:21:10;;;;;;;5.17;2.58;;;;;;;13.55;61.21;99200.94;1794402;78;27523;-74
2021/05/05 07:23:38;;;;;;;5.60;2.70;;;;;;;13.60;62.16;99204.25;1749880;80;26203;-74
2021/05/05 07:26:05;;;;;;;4.00;2.20;;;;;;;13.65;61.97;99201.64;1778642;78;26453;-73
2021/05/05 07:28:32;;;;;;;3.37;2.25;;;;;;;13.70;61.41;99204.44;1762709;79;26188;-73
2021/05/05 07:31:00;;;;;;;7.05;2.50;;;;;;;13.69;59.94;99212.20;1793408;78;25710;-73
2021/05/05 07:33:27;;;;;;;2.60;2.05;;;;;;;13.62;60.65;99218.28;1750154;79;28442;-73
2021/05/05 07:35:56;;;;;;;4.60;2.00;;;;;;;13.56;60.89;99216.00;1770850;78;25649;-73
2021/05/05 07:46:15;;;;;;;8.13;2.75;;;;;;;13.41;57.72;99225.66;1789193;78;27535;-74
2021/05/05 07:48:47;;;;;;;3.87;1.87;;;;;;;13.34;57.02;99217.73;1774929;78;25812;-73
2021/05/05 07:51:09;;;;;;;4.87;1.85;;;;;;;13.32;57.94;99219.84;1788675;79;25826;-73
2021/05/05 07:53:38;;;;;;;4.92;1.50;;;;;;;13.28;58.17;99215.17;1755445;79;25706;-74
2021/05/05 07:56:05;;;;;;;5.97;1.40;;;;;;;13.29;58.82;99215.45;1768845;78;25777;-74
2021/05/05 07:58:33;;;;;;;5.72;1.60;;;;;;;13.33;58.29;99212.56;1794793;78;29080;-74
2021/05/05 08:01:00;;;;;;;5.03;2.15;;;;;;;13.39;58.76;99215.13;1791391;78;25370;-73
2021/05/05 08:03:27;;;;;;;4.87;2.00;;;;;;;13.48;59.43;99213.70;1760955;78;25893;-72
2021/05/05 08:05:55;;;;;;;4.50;1.62;;;;;;;13.55;58.99;99216.25;1728446;80;25767;-73
2021/05/05 08:08:22;;;;;;;5.10;3.05;;;;;;;13.60;58.06;99213.67;1737416;80;25832;-72
2021/05/05 08:10:50;;;;;;;5.62;1.62;;;;;;;13.69;58.56;99217.59;1742775;81;28932;-73
2021/05/05 08:13:17;;;;;;;3.15;1.67;;;;;;;13.80;57.67;99218.90;1715712;81;26248;-73
2021/05/05 08:15:46;;;;;;;3.77;1.77;;;;;;;13.83;57.05;99225.68;1712683;81;25797;-74
2021/05/05 08:18:13;;;;;;;3.10;1.70;;;;;;;13.79;57.22;99230.70;1755054;78;26863;-73
2021/05/05 08:20:42;;;;;;;6.35;1.82;;;;;;;13.79;57.75;99225.33;1790941;78;25990;-73
2021/05/05 08:23:13;;;;;;;4.30;2.08;;;;;;;13.83;58.00;99227.03;1743141;78;27539;-73
2021/05/05 08:25:42;;;;;;;4.12;1.80;;;;;;;13.88;56.38;99223.06;1786363;78;25875;-73
2021/05/05 08:28:10;;;;;;;5.37;1.25;;;;;;;13.85;56.13;99230.30;1776604;80;25383;-73
2021/05/05 08:30:39;;;;;;;5.22;1.75;;;;;;;13.85;56.35;99227.60;1789367;78;26242;-73
2021/05/05 08:33:07;;;;;;;5.97;2.05;;;;;;;13.84;56.74;99231.34;1745328;78;26192;-73
2021/05/05 08:35:35;;;;;;;6.10;1.80;;;;;;;13.79;56.29;99226.67;1786553;79;28826;-74
2021/05/05 08:38:02;;;;;;;8.28;2.05;;;;;;;13.73;56.14;99222.25;1730852;80;25802;-73
2021/05/05 08:40:32;;;;;;;4.75;1.87;;;;;;;13.67;55.04;99219.19;1740796;81;26212;-73
2021/05/05 08:43:00;;;;;;;7.20;3.50;;;;;;;13.63;56.08;99218.55;1751861;78;25898;-73
2021/05/05 08:45:29;;;;;;;7.33;2.80;;;;;;;13.61;56.71;99208.56;1726734;80;25717;-73
2021/05/05 08:48:04;;;;;;;4.95;1.70;;;;;;;13.64;56.57;99209.44;1723059;81;27387;-73
2021/05/05 08:50:35;;;;;;;3.02;2.30;;;;;;;13.69;56.57;99209.00;1741026;81;25713;-73
2021/05/05 08:53:04;;;;;;;8.85;3.33;;;;;;;13.76;56.71;99208.85;1774719;78;25724;-73
2021/05/05 08:55:32;;;;;;;6.83;2.50;;;;;;;13.83;56.67;99204.15;1780773;79;25789;-73
2021/05/05 08:58:00;;;;;;;6.30;1.98;;;;;;;13.87;56.56;99203.95;1778315;78;25848;-73
2021/05/05 09:00:35;;;;;;;4.97;1.85;;;;;;;13.93;56.50;99202.45;1785219;78;27569;-73
2021/05/05 09:03:06;;;;;;;2.58;1.15;;;;;;;14.03;56.80;99202.36;1747834;80;25833;-73
2021/05/05 09:05:49;;;;;;;;;;;;;;;14.12;56.20;99199.01;1765686;80;25837;-73
2021/05/05 09:08:17;;;;;;;10.08;1.77;;;;;;;14.21;56.27;99204.28;1787838;78;25791;-74
2021/05/05 09:11:05;;;;;;;4.67;1.75;;;;;;;14.34;55.65;99207.22;1779978;79;26432;-74
2021/05/05 09:13:55;;;;;;;4.55;2.25;;;;;;;14.44;56.26;99192.03;1766046;80;27521;-74
2021/05/05 09:16:31;;;;;;;5.95;1.72;;;;;;;14.50;55.16;99189.70;1775698;78;25711;-73
2021/05/05 09:19:06;;;;;;;2.70;1.60;;;;;;;14.55;56.03;99190.31;1785629;79;25786;-74
2021/05/05 09:21:36;;;;;;;5.87;2.05;;;;;;;14.62;55.93;99191.78;1784654;78;26248;-74
2021/05/05 09:24:29;;;;;;;7.20;1.45;;;;;;;14.75;56.20;99196.54;1784613;79;25889;-74
2021/05/05 09:27:09;;;;;;;4.28;1.70;;;;;;;14.83;55.29;99188.84;1768115;80;28429;-73
2021/05/05 09:29:46;;;;;;;4.80;1.98;;;;;;;14.88;56.03;99180.84;1761392;78;25840;-74
2021/05/05 09:32:21;;;;;;;6.50;1.80;;;;;;;14.94;55.41;99180.36;1765237;79;25873;-74
2021/05/05 09:35:05;;;;;;;6.62;1.90;;;;;;;14.92;55.17;99190.06;1775717;78;26849;-73
2021/05/05 09:37:32;;;;;;;5.30;1.70;;;;;;;14.86;55.00;99181.62;1794867;78;26337;-73
2021/05/05 09:40:07;;;;;;;6.70;1.77;;;;;;;14.83;55.36;99177.23;1782695;78;27528;-74
2021/05/05 09:42:36;;;;;;;6.95;1.90;;;;;;;14.76;55.37;99185.50;1761141;80;25982;-73
2021/05/05 09:45:11;;;;;;;5.25;1.80;;;;;;;14.66;54.46;99178.10;1686365;82;25923;-74
2021/05/05 09:47:53;;;;;;;4.40;1.90;;;;;;;14.59;54.75;99173.92;1728051;81;26408;-74
2021/05/05 09:50:40;;;;;;;7.25;2.65;;;;;;;14.52;54.84;99173.30;1718587;81;26026;-74
2021/05/05 09:53:26;;;;;;;9.53;5.00;;;;;;;14.45;55.04;99174.00;1715225;82;28265;-72
2021/05/05 09:56:05;;;;;;;7.87;3.42;;;;;;;14.40;55.04;99170.69;1725021;81;25812;-74
2021/05/05 09:58:44;;;;;;;11.75;5.80;;;;;;;14.34;55.13;99164.12;1744685;81;26387;-73
2021/05/05 10:01:15;;;;;;;9.20;3.42;;;;;;;14.34;54.95;99159.55;1733209;81;26485;-72
2021/05/05 10:03:49;;;;;;;4.17;2.47;;;;;;;14.35;55.35;99162.52;1718984;82;25754;-74
2021/05/05 10:06:38;;;;;;;6.50;1.67;;;;;;;14.41;55.23;99162.08;1789063;79;25858;-73
2021/05/05 10:09:12;;;;;;;7.83;1.98;;;;;;;14.34;55.49;99164.12;1745400;80;26017;-73
2021/05/05 10:11:45;;;;;;;5.72;2.40;;;;;;;14.34;55.71;99151.47;1715746;80;27534;-74
2021/05/05 10:14:15;;;;;;;3.92;2.10;;;;;;;14.38;56.25;99154.48;1669659;82;26419;-73
2021/05/05 10:16:47;;;;;;;4.05;2.25;;;;;;;14.43;55.86;99158.61;1704132;82;25810;-74
2021/05/05 10:19:19;;;;;;;6.90;2.12;;;;;;;14.51;56.63;99165.75;1737175;80;25776;-74
2021/05/05 10:21:59;;;;;;;6.62;1.80;;;;;;;14.56;55.99;99169.84;1728819;81;25964;-74
2021/05/05 10:24:30;;;;;;;5.95;2.05;;;;;;;14.58;56.38;99166.92;1695870;81;28534;-74
2021/05/05 10:26:58;;;;;;;3.80;1.90;;;;;;;14.61;56.79;99170.45;1697175;80;26210;-75
2021/05/05 10:29:28;;;;;;;5.28;1.75;;;;;;;14.65;56.40;99169.72;1698891;80;25875;-74
2021/05/05 10:32:01;;;;;;;9.13;2.33;;;;;;;14.65;57.29;99168.37;1730793;82;25823;-74
2021/05/05 10:34:29;;;;;;;4.97;2.42;;;;;;;14.67;57.32;99173.50;1654731;82;26435;-74
2021/05/05 10:37:03;;;;;;;3.98;1.57;;;;;;;14.68;57.88;99180.02;1689690;82;27558;-74
2021/05/05 10:39:37;;;;;;;5.15;1.90;;;;;;;14.67;56.48;99170.81;1694297;82;25897;-74
2021/05/05 10:42:13;;;;;;;3.20;1.47;;;;;;;14.58;57.13;99175.80;1742413;80;25919;-72
2021/05/05 10:44:58;;;;;;;3.72;1.98;;;;;;;14.53;57.33;99179.78;1687303;82;25782;-72
2021/05/05 10:47:33;;;;;;;4.35;1.72;;;;;;;14.47;57.63;99183.99;1719561;80;25707;-73
2021/05/05 10:50:06;;;;;;;5.30;1.85;;;;;;;14.41;58.01;99176.90;1704823;81;28299;-73
2021/05/05 10:52:54;;;;;;;3.35;1.70;;;;;;;14.37;58.26;99188.67;1724398;82;25884;-73
2021/05/05 10:55:41;;;;;;;4.25;2.00;;;;;;;14.34;58.81;99187.84;1700096;82;25921;-73
2021/05/05 10:58:15;;;;;;;4.60;2.22;;;;;;;14.25;58.76;99197.34;1681099;82;25899;-72
2021/05/05 11:00:49;;;;;;;5.85;2.00;;;;;;;14.17;59.28;99207.19;1696121;82;26490;-73
2021/05/05 11:03:18;;;;;;;6.97;2.58;;;;;;;14.07;60.00;99208.89;1728536;82;27531;-73
2021/05/05 11:05:48;;;;;;;5.58;2.02;;;;;;;14.01;60.68;99211.20;1651943;82;25793;-73
2021/05/05 11:08:27;;;;;;;5.53;2.35;;;;;;;14.00;61.33;99213.08;1727731;82;25886;-73
2021/05/05 11:10:57;;;;;;;6.72;1.80;;;;;;;13.95;61.60;99223.74;1694508;82;26391;-73
2021/05/05 11:13:33;;;;;;;7.28;2.27;;;;;;;13.86;62.02;99221.14;1713228;82;26579;-74
2021/05/05 11:16:00;;;;;;;2.92;1.72;;;;;;;13.78;62.49;99221.02;1718794;82;27601;-73
2021/05/05 11:18:39;;;;;;;3.52;1.80;;;;;;;13.68;62.64;99225.39;1669998;82;26540;-73
2021/05/05 11:21:09;;;;;;;5.95;2.20;;;;;;;13.56;63.40;99224.59;1688306;83;25856;-73
2021/05/05 11:23:43;;;;;;;4.40;1.87;;;;;;;13.45;64.12;99230.85;1727319;82;25979;-73
2021/05/05 11:26:33;;;;;;;8.33;2.25;;;;;;;13.37;65.00;99226.65;1693592;82;26080;-73
2021/05/05 11:29:11;;;;;;;4.85;2.10;;;;;;;13.30;65.97;99231.89;1731591;82;28441;-73
2021/05/05 11:31:53;;;;;;;4.42;1.87;;;;;;;13.22;66.09;99230.36;1673265;82;25842;-73
2021/05/05 11:34:29;;;;;;;5.45;2.65;;;;;;;13.18;66.94;99235.92;1724794;82;25780;-73
2021/05/05 11:37:05;;;;;;;6.28;2.60;;;;;;;13.18;67.44;99237.79;1690297;82;26439;-73
2021/05/05 11:39:40;;;;;;;5.75;2.50;;;;;;;13.19;67.59;99232.72;1669912;82;25900;-73
2021/05/05 11:42:17;;;;;;;4.53;2.55;;;;;;;13.20;68.25;99231.65;1693540;82;28016;-73
2021/05/05 11:45:02;;;;;;;4.67;2.83;;;;;;;13.22;68.67;99228.19;1729844;80;25852;-73
2021/05/05 11:47:36;;;;;;;9.50;3.37;;;;;;;13.25;69.51;99228.55;1682709;82;25828;-72
2021/05/05 11:50:16;;;;;;;4.12;3.02;;;;;;;13.25;69.96;99229.91;1686286;82;25799;-72
2021/05/05 11:52:51;;;;;;;4.58;2.98;;;;;;;13.28;70.52;99225.92;1702504;81;26201;-74
2021/05/05 11:55:27;;;;;;;9.90;4.58;;;;;;;13.31;70.88;99232.98;1730258;81;28465;-73